createdAt,value
2018-09-14T00:01:47.891Z,14.20
2018-09-14T00:04:15.966Z,14.20
2018-09-14T00:06:44.065Z,14.10
2018-09-14T00:09:13.178Z,14.00
2018-09-14T00:11:41.490Z,14.10
2018-09-14T00:14:09.893Z,14.10
2018-09-14T00:16:38.182Z,14.20
2018-09-14T00:19:06.386Z,14.30
2018-09-14T00:21:34.484Z,14.30
2018-09-14T00:24:02.497Z,14.30
2018-09-14T00:26:30.894Z,14.30
2018-09-14T00:28:58.990Z,14.20
2018-09-14T00:31:26.977Z,14.20
2018-09-14T00:33:55.006Z,14.00
2018-09-14T00:36:23.072Z,13.90
2018-09-14T00:38:51.092Z,13.70
2018-09-14T00:41:19.261Z,13.60
2018-09-14T00:43:47.290Z,13.50
2018-09-14T00:46:15.279Z,13.50
2018-09-14T00:48:43.349Z,13.40
2018-09-14T00:51:11.350Z,13.30
2018-09-14T00:53:39.377Z,13.20
2018-09-14T00:56:07.365Z,13.20
2018-09-14T00:58:35.430Z,13.10
2018-09-14T01:01:03.454Z,13.10
2018-09-14T01:03:31.489Z,13.10
2018-09-14T01:05:59.522Z,13.00
2018-09-14T01:08:27.828Z,13.00
2018-09-14T01:10:55.818Z,12.90
2018-09-14T01:13:24.099Z,12.90
2018-09-14T01:15:52.129Z,12.80
2018-09-14T01:18:20.205Z,12.80
2018-09-14T01:20:48.193Z,12.80
2018-09-14T01:23:16.222Z,12.80
2018-09-14T01:25:44.214Z,12.80
2018-09-14T01:28:12.250Z,12.70
2018-09-14T01:30:40.277Z,12.80
2018-09-14T01:33:08.561Z,13.00
2018-09-14T01:35:42.169Z,13.20
2018-09-14T01:38:10.189Z,13.20
2018-09-14T01:40:38.185Z,13.10
2018-09-14T01:43:06.197Z,13.00
2018-09-14T01:45:34.293Z,12.90
2018-09-14T01:48:02.317Z,12.90
2018-09-14T01:50:30.362Z,12.90
2018-09-14T01:52:58.378Z,12.90
2018-09-14T01:55:26.469Z,13.00
2018-09-14T01:57:54.481Z,13.00
2018-09-14T02:00:22.510Z,12.90
2018-09-14T02:02:50.541Z,12.80
2018-09-14T02:05:18.566Z,12.90
2018-09-14T02:07:46.648Z,12.80
2018-09-14T02:10:20.270Z,12.80
2018-09-14T02:12:48.370Z,12.90
2018-09-14T02:15:16.479Z,12.90
2018-09-14T02:17:44.461Z,13.10
2018-09-14T02:20:12.565Z,13.00
2018-09-14T02:22:40.561Z,13.10
2018-09-14T02:25:08.753Z,13.10
2018-09-14T02:27:36.788Z,13.20
2018-09-14T02:30:05.018Z,13.20
2018-09-14T02:32:33.213Z,13.20
2018-09-14T02:35:01.202Z,13.30
2018-09-14T02:37:29.242Z,13.30
2018-09-14T02:39:57.338Z,13.40
2018-09-14T02:42:25.368Z,13.50
2018-09-14T02:44:53.486Z,13.50
2018-09-14T02:47:21.626Z,13.50
2018-09-14T02:49:49.935Z,13.40
2018-09-14T02:52:17.926Z,13.30
2018-09-14T02:54:45.981Z,13.10
2018-09-14T02:57:14.018Z,13.10
2018-09-14T02:59:42.115Z,13.00
2018-09-14T03:02:10.338Z,13.20
2018-09-14T03:04:38.417Z,13.20
2018-09-14T03:07:06.712Z,13.20
2018-09-14T03:09:34.804Z,13.30
2018-09-14T03:12:02.804Z,13.20
2018-09-14T03:14:30.829Z,13.30
2018-09-14T03:16:58.827Z,13.20
2018-09-14T03:19:26.891Z,13.20
2018-09-14T03:21:54.926Z,13.50
2018-09-14T03:24:23.191Z,13.50
2018-09-14T03:26:51.311Z,13.40
2018-09-14T03:29:19.486Z,13.40
2018-09-14T03:31:47.481Z,13.40
2018-09-14T03:34:15.517Z,13.50
2018-09-14T03:36:43.570Z,13.70
2018-09-14T03:39:11.625Z,13.80
2018-09-14T03:41:39.623Z,13.70
2018-09-14T03:44:07.754Z,13.60
2018-09-14T03:46:35.854Z,13.60
2018-09-14T03:49:04.149Z,13.60
2018-09-14T03:51:32.147Z,13.50
2018-09-14T03:54:00.138Z,13.50
2018-09-14T03:56:28.239Z,13.50
2018-09-14T03:58:56.230Z,13.40
2018-09-14T04:01:24.653Z,13.50
2018-09-14T04:03:53.046Z,13.50
2018-09-14T04:06:21.041Z,13.50
2018-09-14T04:08:49.041Z,13.40
2018-09-14T04:11:17.088Z,13.40
2018-09-14T04:13:45.112Z,13.40
2018-09-14T04:16:13.530Z,13.40
2018-09-14T04:18:41.610Z,13.60
2018-09-14T04:21:09.603Z,13.70
2018-09-14T04:23:37.747Z,13.60
2018-09-14T04:26:05.725Z,13.50
2018-09-14T04:28:33.731Z,13.50
2018-09-14T04:31:01.762Z,13.40
2018-09-14T04:33:29.761Z,13.40
2018-09-14T04:35:57.899Z,13.50
2018-09-14T04:38:26.051Z,13.50
2018-09-14T04:40:54.027Z,13.50
2018-09-14T04:43:22.081Z,13.60
2018-09-14T04:45:50.183Z,13.50
2018-09-14T04:48:18.655Z,13.60
2018-09-14T04:50:46.578Z,13.60
2018-09-14T04:53:14.677Z,13.60
2018-09-14T04:55:42.765Z,13.60
2018-09-14T04:58:10.769Z,13.60
2018-09-14T05:00:39.175Z,13.60
2018-09-14T05:03:07.223Z,13.60
2018-09-14T05:05:35.227Z,13.60
2018-09-14T05:08:03.352Z,13.70
2018-09-14T05:10:31.453Z,13.70
2018-09-14T05:12:59.574Z,13.70
2018-09-14T05:15:27.574Z,13.80
2018-09-14T05:17:55.641Z,13.90
2018-09-14T05:20:24.054Z,13.90
2018-09-14T05:22:52.055Z,14.00
2018-09-14T05:25:20.089Z,14.00
2018-09-14T05:27:48.235Z,14.00
2018-09-14T05:30:16.261Z,14.10
2018-09-14T05:32:44.245Z,14.00
2018-09-14T05:35:12.321Z,14.10
2018-09-14T05:37:40.313Z,14.20
2018-09-14T05:40:08.622Z,14.30
2018-09-14T05:42:36.665Z,14.20
2018-09-14T05:45:04.669Z,14.30
2018-09-14T05:47:32.715Z,14.30
2018-09-14T05:50:00.709Z,14.20
2018-09-14T05:52:28.930Z,14.20
2018-09-14T05:54:57.002Z,14.20
2018-09-14T05:57:24.989Z,14.20
2018-09-14T05:59:53.014Z,14.30
2018-09-14T06:02:21.010Z,14.40
2018-09-14T06:04:49.378Z,14.70
2018-09-14T06:07:17.475Z,14.80
2018-09-14T06:09:45.580Z,15.00
2018-09-14T06:12:13.977Z,14.90
2018-09-14T06:14:41.965Z,14.70
2018-09-14T06:17:10.147Z,14.70
2018-09-14T06:19:38.110Z,14.70
2018-09-14T06:22:06.270Z,14.50
2018-09-14T06:24:34.313Z,14.50
2018-09-14T06:27:02.337Z,14.70
2018-09-14T06:29:30.338Z,14.90
2018-09-14T06:31:58.553Z,14.90
2018-09-14T06:34:26.545Z,15.00
2018-09-14T06:36:54.647Z,15.00
2018-09-14T06:39:22.734Z,15.00
2018-09-14T06:41:50.763Z,15.20
2018-09-14T06:44:18.825Z,15.40
2018-09-14T06:46:46.930Z,15.50
2018-09-14T06:49:14.917Z,15.40
2018-09-14T06:51:43.021Z,15.60
2018-09-14T06:54:11.101Z,15.60
2018-09-14T06:56:39.089Z,15.70
2018-09-14T06:59:07.198Z,15.80
2018-09-14T07:01:35.226Z,15.90
2018-09-14T07:04:03.225Z,16.10
2018-09-14T07:06:31.368Z,16.30
2018-09-14T07:08:59.345Z,16.30
2018-09-14T07:11:27.452Z,16.20
2018-09-14T07:13:55.510Z,16.30
2018-09-14T07:16:23.569Z,16.30
2018-09-14T07:18:51.597Z,16.30
2018-09-14T07:21:19.588Z,16.40
2018-09-14T07:23:47.659Z,16.60
2018-09-14T07:26:15.740Z,16.50
2018-09-14T07:28:43.780Z,16.30
2018-09-14T07:31:11.850Z,16.20
2018-09-14T07:33:39.946Z,16.30
2018-09-14T07:36:08.143Z,16.40
2018-09-14T07:38:36.128Z,16.50
2018-09-14T07:41:04.126Z,16.70
2018-09-14T07:43:32.151Z,16.70
2018-09-14T07:46:00.225Z,16.90
2018-09-14T07:48:28.403Z,17.10
2018-09-14T07:50:56.427Z,17.20
2018-09-14T07:53:24.449Z,17.40
2018-09-14T07:55:52.469Z,17.40
2018-09-14T07:58:20.486Z,17.40
2018-09-14T08:00:48.698Z,17.50
2018-09-14T08:03:17.001Z,17.60
2018-09-14T08:05:44.996Z,17.30
2018-09-14T08:08:13.017Z,16.90
2018-09-14T08:10:41.298Z,17.00
2018-09-14T08:13:09.301Z,17.00
2018-09-14T08:15:37.391Z,17.00
2018-09-14T08:18:05.837Z,17.40
2018-09-14T08:20:33.991Z,17.50
2018-09-14T08:23:02.410Z,17.70
2018-09-14T08:25:30.389Z,17.80
2018-09-14T08:27:58.386Z,18.10
2018-09-14T08:30:26.417Z,18.40
2018-09-14T08:32:54.413Z,18.30
2018-09-14T08:35:22.400Z,18.50
2018-09-14T08:37:50.565Z,18.10
2018-09-14T08:40:18.741Z,17.80
2018-09-14T08:42:46.864Z,17.50
2018-09-14T08:45:14.916Z,17.50
2018-09-14T08:47:42.945Z,17.60
2018-09-14T08:50:11.049Z,17.30
2018-09-14T08:52:39.034Z,17.40
2018-09-14T08:55:07.485Z,17.50
2018-09-14T08:57:35.497Z,17.80
2018-09-14T09:00:03.649Z,17.90
2018-09-14T09:02:31.735Z,17.70
2018-09-14T09:04:59.799Z,17.80
2018-09-14T09:07:27.941Z,17.70
2018-09-14T09:12:16.749Z,17.80
2018-09-14T09:14:44.777Z,18.20
2018-09-14T09:17:12.840Z,18.20
2018-09-14T09:19:40.845Z,18.30
2018-09-14T09:22:08.937Z,18.50
2018-09-14T09:24:36.925Z,18.50
2018-09-14T09:27:05.066Z,18.10
2018-09-14T09:29:33.200Z,17.90
2018-09-14T09:32:01.230Z,18.10
2018-09-14T09:34:29.213Z,18.40
2018-09-14T09:36:57.308Z,18.50
2018-09-14T09:39:25.616Z,18.60
2018-09-14T09:41:53.718Z,18.70
2018-09-14T09:44:21.730Z,18.90
2018-09-14T09:46:49.801Z,19.10
2018-09-14T09:49:18.102Z,19.20
2018-09-14T09:51:46.123Z,19.20
2018-09-14T09:54:14.094Z,19.20
2018-09-14T09:56:42.490Z,19.40
2018-09-14T09:59:10.466Z,19.50
2018-09-14T10:01:44.005Z,19.40
2018-09-14T10:04:17.577Z,19.50
2018-09-14T10:06:45.866Z,19.60
2018-09-14T10:09:13.895Z,19.40
2018-09-14T10:11:41.905Z,19.40
2018-09-14T10:14:09.988Z,19.30
2018-09-14T10:16:38.026Z,19.70
2018-09-14T10:19:06.148Z,19.90
2018-09-14T10:21:34.155Z,20.00
2018-09-14T10:24:02.322Z,19.90
2018-09-14T10:26:30.419Z,19.90
2018-09-14T10:28:58.550Z,19.90
2018-09-14T10:31:26.553Z,19.70
2018-09-14T10:33:54.577Z,19.90
2018-09-14T10:36:22.558Z,20.00
2018-09-14T10:38:50.894Z,19.50
2018-09-14T10:41:18.912Z,19.50
2018-09-14T10:43:46.989Z,19.50
2018-09-14T10:46:15.121Z,19.60
2018-09-14T10:48:43.233Z,19.80
2018-09-14T10:51:11.380Z,19.80
2018-09-14T10:53:39.410Z,19.90
2018-09-14T10:56:07.476Z,19.70
2018-09-14T10:58:44.208Z,19.80
2018-09-14T11:01:14.002Z,19.90
2018-09-14T11:03:42.518Z,20.10
2018-09-14T11:06:10.922Z,20.30
2018-09-14T11:08:39.018Z,20.30
2018-09-14T11:11:07.245Z,20.20
2018-09-14T11:13:35.316Z,19.50
2018-09-14T11:16:03.367Z,19.00
2018-09-14T11:18:31.398Z,19.20
2018-09-14T11:20:59.409Z,19.60
2018-09-14T11:23:27.502Z,19.90
2018-09-14T11:25:55.593Z,20.10
2018-09-14T11:28:23.622Z,20.00
2018-09-14T11:30:51.692Z,20.20
2018-09-14T11:33:19.681Z,20.50
2018-09-14T11:35:47.773Z,20.60
2018-09-14T11:38:15.945Z,20.30
2018-09-14T11:40:43.871Z,20.50
2018-09-14T11:43:12.066Z,20.70
2018-09-14T11:45:40.465Z,20.90
2018-09-14T11:48:08.572Z,21.10
2018-09-14T11:50:36.665Z,21.20
2018-09-14T11:53:04.760Z,21.30
2018-09-14T11:55:33.062Z,21.30
2018-09-14T11:58:01.258Z,21.40
2018-09-14T12:00:29.623Z,21.40
2018-09-14T12:02:57.618Z,20.80
2018-09-14T12:05:25.753Z,20.60
2018-09-14T12:07:53.954Z,20.70
2018-09-14T12:10:22.582Z,20.80
2018-09-14T12:12:50.727Z,21.10
2018-09-14T12:15:18.816Z,21.30
2018-09-14T12:17:47.006Z,21.30
2018-09-14T12:20:14.992Z,21.20
2018-09-14T12:22:43.054Z,21.00
2018-09-14T12:25:11.076Z,20.90
2018-09-14T12:27:39.134Z,21.00
2018-09-14T12:30:07.181Z,21.20
2018-09-14T12:32:35.200Z,21.40
2018-09-14T12:35:03.331Z,21.50
2018-09-14T12:37:31.325Z,21.10
2018-09-14T12:39:59.434Z,20.60
2018-09-14T12:42:29.830Z,20.50
2018-09-14T12:44:58.031Z,20.40
2018-09-14T12:47:26.060Z,20.40
2018-09-14T12:49:54.267Z,20.40
2018-09-14T12:52:22.254Z,20.50
2018-09-14T12:54:51.334Z,20.30
2018-09-14T12:57:19.369Z,20.40
2018-09-14T12:59:47.358Z,20.70
2018-09-14T13:02:15.385Z,20.80
2018-09-14T13:04:43.570Z,20.40
2018-09-14T13:07:11.667Z,20.00
2018-09-14T13:09:39.763Z,19.80
2018-09-14T13:12:07.790Z,19.80
2018-09-14T13:14:35.978Z,20.10
2018-09-14T13:17:04.258Z,20.40
2018-09-14T13:19:32.250Z,20.40
2018-09-14T13:22:00.334Z,20.40
2018-09-14T13:24:28.504Z,20.40
2018-09-14T13:26:56.554Z,20.30
2018-09-14T13:29:31.510Z,20.40
2018-09-14T13:31:59.497Z,20.50
2018-09-14T13:34:27.493Z,20.50
2018-09-14T13:36:55.584Z,20.20
2018-09-14T13:39:23.590Z,20.10
2018-09-14T13:41:51.818Z,20.30
2018-09-14T13:44:19.826Z,20.60
2018-09-14T13:46:47.966Z,20.70
2018-09-14T13:49:15.968Z,20.20
2018-09-14T13:51:44.067Z,20.20
2018-09-14T13:54:12.095Z,20.20
2018-09-14T13:56:40.114Z,20.10
2018-09-14T13:59:08.243Z,20.00
2018-09-14T14:01:36.359Z,20.20
2018-09-14T14:04:04.760Z,20.10
2018-09-14T14:06:32.813Z,20.50
2018-09-14T14:09:01.027Z,20.60
2018-09-14T14:11:29.065Z,20.60
2018-09-14T14:13:57.053Z,20.70
2018-09-14T14:16:25.046Z,20.60
2018-09-14T14:18:53.062Z,20.80
2018-09-14T14:21:21.082Z,21.00
2018-09-14T14:23:49.526Z,21.10
2018-09-14T14:26:17.635Z,21.20
2018-09-14T14:28:45.729Z,21.10
2018-09-14T14:31:13.809Z,21.10
2018-09-14T14:33:41.878Z,20.80
2018-09-14T14:36:10.114Z,20.70
2018-09-14T14:38:38.209Z,20.60
2018-09-14T14:41:06.333Z,20.60
2018-09-14T14:43:34.704Z,20.40
2018-09-14T14:46:02.783Z,20.50
2018-09-14T14:48:30.910Z,20.70
2018-09-14T14:50:58.900Z,20.70
2018-09-14T14:53:27.194Z,20.80
2018-09-14T14:55:55.265Z,20.80
2018-09-14T14:58:23.184Z,20.90
2018-09-14T15:00:51.273Z,20.80
2018-09-14T15:03:19.266Z,20.80
2018-09-14T15:05:47.536Z,20.90
2018-09-14T15:08:15.573Z,20.90
2018-09-14T15:10:43.624Z,20.80
2018-09-14T15:13:11.607Z,20.70
2018-09-14T15:15:39.973Z,20.80
2018-09-14T15:18:07.982Z,20.80
2018-09-14T15:20:36.016Z,20.90
2018-09-14T15:23:04.258Z,20.80
2018-09-14T15:25:32.319Z,20.60
2018-09-14T15:28:00.430Z,20.60
2018-09-14T15:30:28.865Z,20.60
2018-09-14T15:32:58.891Z,20.60
2018-09-14T15:35:26.966Z,20.40
2018-09-14T15:37:55.169Z,20.50
2018-09-14T15:40:23.702Z,20.30
2018-09-14T15:42:51.807Z,20.20
2018-09-14T15:45:19.892Z,20.10
2018-09-14T15:47:47.925Z,20.10
2018-09-14T15:50:15.945Z,20.20
2018-09-14T15:52:48.287Z,20.20
2018-09-14T15:55:20.648Z,20.30
2018-09-14T15:57:50.425Z,20.50
2018-09-14T16:00:22.184Z,20.80
2018-09-14T16:02:56.139Z,21.00
2018-09-14T16:05:28.405Z,21.10
2018-09-14T16:07:57.876Z,21.20
2018-09-14T16:10:29.165Z,21.20
2018-09-14T16:12:57.727Z,21.10
2018-09-14T16:15:28.421Z,20.90
2018-09-14T16:17:57.637Z,20.70
2018-09-14T16:20:27.018Z,20.60
2018-09-14T16:22:58.710Z,20.40
2018-09-14T16:25:28.914Z,20.30
2018-09-14T16:27:59.352Z,20.10
2018-09-14T16:30:29.836Z,19.90
2018-09-14T16:32:59.776Z,19.70
2018-09-14T16:35:29.341Z,19.50
2018-09-14T16:37:57.658Z,19.30
2018-09-14T16:40:27.024Z,19.20
2018-09-14T16:42:57.542Z,19.00
2018-09-14T16:45:27.644Z,19.00
2018-09-14T16:47:58.624Z,18.80
2018-09-14T16:50:28.205Z,18.70
2018-09-14T16:52:57.342Z,18.60
2018-09-14T16:55:26.003Z,18.40
2018-09-14T16:57:54.294Z,18.20
2018-09-14T17:00:22.580Z,18.10
2018-09-14T17:02:50.714Z,17.90
2018-09-14T17:05:18.954Z,17.70
2018-09-14T17:07:47.221Z,17.60
2018-09-14T17:10:16.170Z,17.40
2018-09-14T17:12:44.762Z,17.20
2018-09-14T17:15:13.178Z,17.20
2018-09-14T17:17:41.299Z,17.00
2018-09-14T17:20:09.446Z,16.90
2018-09-14T17:22:37.641Z,16.70
2018-09-14T17:25:05.636Z,16.60
2018-09-14T17:27:33.702Z,16.50
2018-09-14T17:30:01.731Z,16.40
2018-09-14T17:32:29.730Z,16.30
2018-09-14T17:34:57.813Z,16.30
2018-09-14T17:37:25.814Z,16.20
2018-09-14T17:39:53.905Z,16.00
2018-09-14T17:42:22.035Z,15.90
2018-09-14T17:44:50.062Z,15.80
2018-09-14T17:47:18.107Z,15.80
2018-09-14T17:49:46.305Z,15.70
2018-09-14T17:52:14.606Z,15.70
2018-09-14T17:54:42.664Z,15.70
2018-09-14T17:57:10.648Z,15.70
2018-09-14T17:59:38.719Z,15.70
2018-09-14T18:02:06.901Z,15.70
2018-09-14T18:04:34.941Z,15.80
2018-09-14T18:07:02.996Z,15.80
2018-09-14T18:09:31.366Z,15.80
2018-09-14T18:11:59.432Z,15.80
2018-09-14T18:14:27.579Z,15.80
2018-09-14T18:16:55.669Z,15.70
2018-09-14T18:19:23.773Z,15.70
2018-09-14T18:21:51.962Z,15.60
2018-09-14T18:24:20.262Z,15.60
2018-09-14T18:26:48.290Z,15.60
2018-09-14T18:29:16.350Z,15.60
2018-09-14T18:31:44.457Z,15.50
2018-09-14T18:34:12.562Z,15.50
2018-09-14T18:36:40.758Z,15.40
2018-09-14T18:39:10.115Z,15.40
2018-09-14T18:41:38.410Z,15.20
2018-09-14T18:44:06.579Z,15.10
2018-09-14T18:46:34.706Z,15.10
2018-09-14T18:49:02.773Z,15.00
2018-09-14T18:51:30.923Z,15.00
2018-09-14T18:53:59.209Z,14.80
2018-09-14T18:56:27.362Z,14.70
2018-09-14T18:58:55.361Z,14.70
2018-09-14T19:01:23.390Z,14.60
2018-09-14T19:03:51.462Z,14.50
2018-09-14T19:06:19.553Z,14.50
2018-09-14T19:08:47.833Z,14.30
2018-09-14T19:11:15.915Z,14.30
2018-09-14T19:13:44.006Z,14.30
2018-09-14T19:16:12.137Z,14.40
2018-09-14T19:18:40.233Z,14.40
2018-09-14T19:21:08.354Z,14.40
2018-09-14T19:23:36.581Z,14.30
2018-09-14T19:26:04.605Z,14.20
2018-09-14T19:28:32.864Z,14.20
2018-09-14T19:31:00.926Z,14.10
2018-09-14T19:33:28.970Z,14.10
2018-09-14T19:35:58.074Z,14.20
2018-09-14T19:38:26.250Z,14.10
2018-09-14T19:40:54.241Z,13.90
2018-09-14T19:43:22.252Z,13.80
2018-09-14T19:45:50.385Z,13.90
2018-09-14T19:48:18.392Z,13.90
2018-09-14T19:50:47.370Z,13.80
2018-09-14T19:53:15.451Z,13.80
2018-09-14T19:55:43.505Z,13.80
2018-09-14T19:58:11.838Z,13.70
2018-09-14T20:00:39.896Z,13.70
2018-09-14T20:03:08.029Z,13.80
2018-09-14T20:05:42.872Z,13.70
2018-09-14T20:08:11.014Z,13.60
2018-09-14T20:10:39.002Z,13.60
2018-09-14T20:13:06.997Z,13.50
2018-09-14T20:15:35.305Z,13.60
2018-09-14T20:18:03.337Z,13.60
2018-09-14T20:20:31.350Z,13.60
2018-09-14T20:22:59.475Z,13.70
2018-09-14T20:25:27.574Z,13.60
2018-09-14T20:27:55.634Z,13.50
2018-09-14T20:30:23.773Z,13.50
2018-09-14T20:32:51.882Z,13.50
2018-09-14T20:35:19.902Z,13.60
2018-09-14T20:37:47.942Z,13.70
2018-09-14T20:40:15.950Z,13.70
2018-09-14T20:42:44.138Z,13.70
2018-09-14T20:45:12.234Z,13.80
2018-09-14T20:47:40.247Z,13.70
2018-09-14T20:50:08.529Z,13.80
2018-09-14T20:52:36.630Z,13.90
2018-09-14T20:55:04.669Z,14.10
2018-09-14T20:57:32.826Z,14.00
2018-09-14T21:00:00.944Z,13.90
2018-09-14T21:02:29.021Z,13.80
2018-09-14T21:04:57.070Z,13.80
2018-09-14T21:07:25.413Z,13.80
2018-09-14T21:09:53.706Z,13.80
2018-09-14T21:12:21.781Z,13.80
2018-09-14T21:14:49.842Z,13.80
2018-09-14T21:17:17.824Z,13.70
2018-09-14T21:19:45.838Z,13.60
2018-09-14T21:22:13.898Z,13.50
2018-09-14T21:24:41.886Z,13.40
2018-09-14T21:27:09.994Z,13.50
2018-09-14T21:29:38.099Z,13.50
2018-09-14T21:32:06.192Z,13.50
2018-09-14T21:34:34.256Z,13.40
2018-09-14T21:37:02.406Z,13.30
2018-09-14T21:39:30.410Z,13.30
2018-09-14T21:41:58.422Z,13.20
2018-09-14T21:44:26.453Z,13.20
2018-09-14T21:46:54.758Z,13.10
2018-09-14T21:49:22.853Z,13.10
2018-09-14T21:51:50.854Z,13.10
2018-09-14T21:54:18.875Z,13.00
2018-09-14T21:56:46.938Z,13.00
2018-09-14T21:59:14.933Z,13.10
2018-09-14T22:01:43.030Z,13.20
2018-09-14T22:04:11.070Z,13.20
2018-09-14T22:06:39.066Z,13.20
2018-09-14T22:09:08.722Z,13.30
2018-09-14T22:11:36.914Z,13.30
2018-09-14T22:14:05.074Z,13.40
2018-09-14T22:16:33.053Z,13.40
2018-09-14T22:19:01.057Z,13.40
2018-09-14T22:21:29.254Z,13.50
2018-09-14T22:23:57.442Z,13.60
2018-09-14T22:26:25.437Z,13.50
2018-09-14T22:28:53.763Z,13.60
2018-09-14T22:31:21.759Z,13.60
2018-09-14T22:33:49.758Z,13.70
2018-09-14T22:36:17.817Z,13.70
2018-09-14T22:38:45.823Z,13.70
2018-09-14T22:41:13.928Z,13.80
2018-09-14T22:43:41.962Z,13.80
2018-09-14T22:46:10.025Z,13.80
2018-09-14T22:48:38.313Z,13.80
2018-09-14T22:51:06.313Z,13.80
2018-09-14T22:53:34.311Z,13.90
2018-09-14T22:56:02.356Z,13.90
2018-09-14T22:58:30.357Z,14.00
2018-09-14T23:01:04.230Z,14.00
2018-09-14T23:03:32.229Z,14.00
2018-09-14T23:06:00.325Z,14.00
2018-09-14T23:08:28.516Z,14.00
2018-09-14T23:10:56.500Z,14.10
2018-09-14T23:13:24.494Z,14.10
2018-09-14T23:15:57.912Z,14.00
2018-09-14T23:18:26.125Z,14.10
2018-09-14T23:20:54.148Z,14.10
2018-09-14T23:23:22.629Z,14.10
2018-09-14T23:25:51.432Z,14.10
2018-09-14T23:28:19.836Z,14.20
2018-09-14T23:30:47.890Z,14.20
2018-09-14T23:33:16.139Z,14.20
2018-09-14T23:35:44.249Z,14.30
2018-09-14T23:38:12.465Z,14.30
2018-09-14T23:40:40.530Z,14.30
2018-09-14T23:43:08.877Z,14.30
2018-09-14T23:45:36.929Z,14.40
2018-09-14T23:48:04.965Z,14.30
2018-09-14T23:50:33.040Z,14.20
2018-09-14T23:53:01.106Z,14.10
2018-09-14T23:55:29.138Z,14.00
2018-09-14T23:57:57.176Z,14.00
